Time;durP1;ratioP1;P1;durP2;ratioP2;P2;SDS_P1;SDS_P2;PMS_P1;PMS_P2;Temp;Humidity;BMP_temperature;BMP_pressure;BME280_temperature;BME280_humidity;BME280_pressure;Samples;Min_cycle;Max_cycle;Signal;HPM_P1;HPM_P2
2023/06/15 00:00:49;;;;;;;;;4.67;4.67;;;;;23.01;34.73;101390.91;5039181;28;45259;-72
2023/06/15 00:03:15;;;;;;;;;6.00;6.00;;;;;22.98;35.04;101391.13;5039190;28;45402;-72
2023/06/15 00:05:40;;;;;;;;;6.67;5.00;;;;;23.01;34.90;101397.13;5039007;28;45248;-73
2023/06/15 00:08:05;;;;;;;;;4.00;4.00;;;;;22.94;35.14;101387.75;5038728;28;46395;-73
2023/06/15 00:10:31;;;;;;;;;4.67;4.67;;;;;22.89;35.27;101393.41;5038644;28;45237;-73
2023/06/15 00:12:56;;;;;;;;;4.00;4.00;;;;;22.94;34.95;101401.19;5039148;28;45368;-73
2023/06/15 00:15:21;;;;;;;;;5.00;4.67;;;;;22.90;35.12;101405.00;5039395;28;45159;-72
2023/06/15 00:17:48;;;;;;;;;3.33;3.33;;;;;22.90;35.31;101396.97;5038738;28;45416;-72
2023/06/15 00:20:14;;;;;;;;;4.00;4.00;;;;;22.65;35.21;101377.06;5038765;28;45493;-72
2023/06/15 00:22:41;;;;;;;;;5.00;5.00;;;;;22.78;35.12;101404.84;5038635;28;45210;-72
2023/06/15 00:25:07;;;;;;;;;33.00;28.33;;;;;22.75;36.02;101412.25;5039059;28;45356;-73
2023/06/15 00:27:34;;;;;;;;;3.67;2.00;;;;;22.70;35.63;101404.47;5038321;28;46524;-72
2023/06/15 00:29:59;;;;;;;;;8.00;7.00;;;;;22.59;35.70;101390.88;5038169;28;45330;-73
2023/06/15 00:32:25;;;;;;;;;7.67;6.00;;;;;22.56;35.94;101402.66;5038695;28;45404;-73
2023/06/15 00:34:50;;;;;;;;;7.00;7.00;;;;;22.51;35.90;101396.72;5038962;28;45314;-73
2023/06/15 00:37:16;;;;;;;;;11.67;6.67;;;;;22.57;35.97;101408.91;5038616;28;46410;-73
2023/06/15 00:39:41;;;;;;;;;4.67;4.67;;;;;22.45;35.76;101405.16;5038605;28;45450;-74
2023/06/15 00:42:07;;;;;;;;;6.33;6.33;;;;;22.42;36.08;101403.53;5038191;28;45325;-74
2023/06/15 00:44:32;;;;;;;;;7.33;6.33;;;;;22.32;36.03;101393.44;5038739;28;45422;-74
2023/06/15 00:46:59;;;;;;;;;7.00;6.00;;;;;22.38;36.42;101406.47;5037942;28;47113;-73
2023/06/15 00:49:25;;;;;;;;;6.00;6.00;;;;;22.12;36.83;101378.56;5038756;28;45496;-73
2023/06/15 00:51:51;;;;;;;;;6.67;6.33;;;;;22.26;36.35;101406.28;5038326;28;45400;-74
2023/06/15 00:54:21;;;;;;;;;6.67;6.67;;;;;22.23;36.83;101402.91;5038623;28;45431;-74
2023/06/15 00:56:47;;;;;;;;;9.33;8.00;;;;;22.15;36.25;101394.50;5037941;28;45540;-73
2023/06/15 00:59:13;;;;;;;;;8.00;6.67;;;;;22.13;36.90;101394.56;5037715;28;45518;-72
2023/06/15 01:01:38;;;;;;;;;7.00;7.00;;;;;22.03;36.94;101380.88;5038484;28;45364;-72
2023/06/15 01:04:04;;;;;;;;;11.67;8.00;;;;;22.17;36.91;101406.81;5038441;28;45283;-72
2023/06/15 01:06:31;;;;;;;;;10.33;9.00;;;;;22.16;37.30;101399.75;5038064;28;46304;-72
2023/06/15 01:09:01;;;;;;;;;12.00;7.00;;;;;22.08;37.17;101396.66;5038182;28;45285;-72
2023/06/15 01:11:30;;;;;;;;;7.00;7.00;;;;;22.14;37.31;101414.22;5037682;28;45269;-72
2023/06/15 01:13:57;;;;;;;;;7.00;7.00;;;;;22.08;37.32;101404.72;5035136;28;45380;-72
2023/06/15 01:16:27;;;;;;;;;8.00;8.00;;;;;22.04;37.68;101406.72;5018022;28;45330;-73
2023/06/15 01:18:57;;;;;;;;;14.33;9.00;;;;;22.03;37.53;101412.16;5017973;28;45297;-73
2023/06/15 01:21:26;;;;;;;;;8.00;6.67;;;;;22.00;37.39;101420.41;5017919;28;45249;-73
2023/06/15 01:24:17;;;;;;;;;11.67;10.00;;;;;21.92;37.65;101413.69;5031641;28;45501;-73
2023/06/15 01:26:45;;;;;;;;;9.33;9.33;;;;;21.88;37.83;101412.13;5037313;28;47003;-73
2023/06/15 01:29:11;;;;;;;;;9.33;9.00;;;;;21.64;37.84;101370.69;5037340;28;45531;-73
2023/06/15 01:31:39;;;;;;;;;10.00;9.00;;;;;21.74;38.20;101388.00;5037446;28;45444;-73
2023/06/15 01:34:06;;;;;;;;;9.00;7.33;;;;;21.79;38.34;101406.47;5037748;28;45431;-73
2023/06/15 01:36:32;;;;;;;;;10.67;9.33;;;;;21.78;38.09;101402.91;5037444;28;46595;-73
2023/06/15 01:38:58;;;;;;;;;6.67;6.67;;;;;21.77;38.15;101406.56;5037661;28;45421;-73
2023/06/15 01:41:26;;;;;;;;;11.00;9.67;;;;;21.70;38.33;101395.34;5037680;28;45271;-72
2023/06/15 01:43:52;;;;;;;;;11.00;9.33;;;;;21.74;38.38;101412.13;5037924;28;45286;-73
2023/06/15 01:46:20;;;;;;;;;12.67;8.67;;;;;21.69;38.58;101412.38;5037301;28;47578;-73
2023/06/15 01:48:46;;;;;;;;;8.00;8.00;;;;;21.53;38.83;101382.06;5036988;28;45337;-74
2023/06/15 01:51:12;;;;;;;;;9.00;8.00;;;;;21.59;38.46;101402.28;5037446;28;45389;-73
2023/06/15 01:53:37;;;;;;;;;9.00;8.00;;;;;21.63;38.78;101411.88;5037872;28;45368;-72
2023/06/15 01:56:03;;;;;;;;;11.00;9.67;;;;;21.55;38.69;101402.47;5037031;28;45430;-72
2023/06/15 01:58:28;;;;;;;;;7.00;7.00;;;;;21.60;38.80;101406.72;5037469;28;45317;-72
2023/06/15 02:00:53;;;;;;;;;9.00;8.33;;;;;21.46;38.87;101394.06;5037531;28;45517;-72
2023/06/15 02:03:19;;;;;;;;;11.67;10.67;;;;;21.56;38.79;101400.66;5037614;28;45477;-72
2023/06/15 02:05:45;;;;;;;;;7.00;5.33;;;;;21.56;39.12;101409.53;5037299;28;45593;-73
2023/06/15 02:08:11;;;;;;;;;7.33;7.33;;;;;21.55;38.73;101415.88;5037366;28;45487;-73
2023/06/15 02:10:37;;;;;;;;;9.00;8.00;;;;;21.47;39.30;101407.38;5037032;28;45337;-72
2023/06/15 02:13:05;;;;;;;;;10.67;8.00;;;;;21.46;39.32;101410.16;5037334;28;45328;-72
2023/06/15 02:15:31;;;;;;;;;25.00;22.33;;;;;21.36;39.18;101394.63;5036889;28;45534;-72
2023/06/15 02:18:01;;;;;;;;;10.00;8.33;;;;;21.41;39.56;101405.06;5037226;28;45374;-72
2023/06/15 02:20:28;;;;;;;;;8.33;8.33;;;;;21.25;39.54;101380.09;5037265;28;45369;-73
2023/06/15 02:22:53;;;;;;;;;14.00;11.00;;;;;21.34;39.65;101401.00;5037232;28;45259;-72
2023/06/15 02:25:19;;;;;;;;;8.00;8.00;;;;;21.32;39.53;101397.53;5036643;28;46444;-73
2023/06/15 02:27:45;;;;;;;;;8.33;8.00;;;;;21.34;39.84;101409.03;5036292;28;45285;-73
2023/06/15 02:30:12;;;;;;;;;9.00;7.67;;;;;21.26;39.73;101396.09;5036957;28;45326;-73
2023/06/15 02:32:39;;;;;;;;;9.67;7.67;;;;;21.35;39.64;101411.63;5037224;28;45365;-73
2023/06/15 02:35:14;;;;;;;;;8.67;8.00;;;;;21.30;39.83;101404.81;5040065;28;46201;-73
2023/06/15 02:37:41;;;;;;;;;12.67;9.00;;;;;21.23;39.61;101412.31;5040533;28;45386;-73
2023/06/15 02:40:08;;;;;;;;;9.67;9.67;;;;;21.19;40.30;101416.16;5040533;28;45314;-73
2023/06/15 02:42:35;;;;;;;;;12.00;9.33;;;;;21.14;40.12;101403.00;5040273;28;45270;-73
2023/06/15 02:45:02;;;;;;;;;6.33;6.33;;;;;21.11;40.24;101405.84;5039882;28;46654;-73
2023/06/15 02:47:28;;;;;;;;;6.33;6.33;;;;;21.13;40.36;101413.78;5040200;28;45294;-73
2023/06/15 02:49:54;;;;;;;;;10.33;10.33;;;;;21.11;40.33;101410.34;5044865;28;45480;-73
2023/06/15 02:52:20;;;;;;;;;10.00;8.00;;;;;20.87;40.57;101376.84;5060486;28;45523;-73
2023/06/15 02:54:46;;;;;;;;;9.33;8.33;;;;;21.11;40.47;101421.06;5060323;28;47205;-73
2023/06/15 02:57:11;;;;;;;;;10.50;8.00;;;;;21.10;40.11;101422.88;5060445;28;45218;-73
2023/06/15 02:59:37;;;;;;;;;1.67;0.00;;;;;21.04;40.49;101418.75;5060374;28;45391;-73
2023/06/15 03:02:06;;;;;;;;;8.00;8.00;;;;;;;;5060597;28;45249;-73
2023/06/15 03:04:32;;;;;;;;;10.33;7.33;;;;;21.02;40.67;101422.44;5052737;28;45359;-73
2023/06/15 03:06:59;;;;;;;;;8.33;8.33;;;;;20.95;40.84;101405.00;5039706;28;45305;-73
2023/06/15 03:09:25;;;;;;;;;7.00;7.00;;;;;20.98;41.06;101426.25;5040139;28;45349;-73
2023/06/15 03:11:51;;;;;;;;;9.67;9.00;;;;;20.90;40.84;101424.00;5040175;28;45219;-73
2023/06/15 03:14:20;;;;;;;;;8.33;8.33;;;;;20.78;41.02;101414.84;5039547;28;47310;-72
2023/06/15 03:16:51;;;;;;;;;9.00;8.33;;;;;20.82;41.01;101418.19;5039821;28;45478;-72
2023/06/15 03:19:17;;;;;;;;;10.00;9.00;;;;;20.82;41.40;101421.72;5039668;28;45366;-72
2023/06/15 03:21:46;;;;;;;;;11.67;9.00;;;;;20.81;40.73;101425.38;5040138;28;45212;-72
2023/06/15 03:24:13;;;;;;;;;11.33;9.33;;;;;20.80;41.21;101429.00;5039768;28;47273;-73
2023/06/15 03:26:41;;;;;;;;;11.67;11.67;;;;;20.79;41.49;101429.06;5039656;28;45485;-72
2023/06/15 03:29:07;;;;;;;;;6.00;6.00;;;;;20.72;41.41;101414.31;5039526;28;45304;-73
2023/06/15 03:31:40;;;;;;;;;13.00;10.00;;;;;20.77;41.60;101431.84;5039783;28;45266;-73
2023/06/15 03:34:09;;;;;;;;;9.67;8.00;;;;;20.78;41.43;101428.22;5039257;28;45460;-72
2023/06/15 03:36:35;;;;;;;;;9.00;9.00;;;;;20.67;41.46;101418.09;5039599;28;45402;-72
2023/06/15 03:39:01;;;;;;;;;8.67;6.67;;;;;20.68;41.95;101424.28;5039610;28;45322;-73
2023/06/15 03:41:27;;;;;;;;;12.00;11.33;;;;;20.66;41.29;101429.72;5039663;28;45515;-73
2023/06/15 03:43:52;;;;;;;;;13.00;9.00;;;;;20.60;41.71;101421.16;5039546;28;45595;-72
2023/06/15 03:46:18;;;;;;;;;12.00;12.00;;;;;20.64;41.83;101434.28;5038683;28;45798;-72
2023/06/15 03:48:43;;;;;;;;;10.00;8.67;;;;;20.57;42.13;101430.22;5039351;28;45387;-72
2023/06/15 03:51:09;;;;;;;;;18.67;12.33;;;;;20.48;42.17;101430.72;5039470;28;45323;-73
2023/06/15 03:53:36;;;;;;;;;10.67;9.33;;;;;20.47;42.30;101431.66;5038982;28;46536;-75
2023/06/15 03:56:01;;;;;;;;;11.67;9.67;;;;;20.49;42.03;101435.97;5039692;28;45556;-78
2023/06/15 03:58:27;;;;;;;;;12.00;9.33;;;;;20.38;42.19;101424.97;5039335;28;45222;-77
2023/06/15 04:00:52;;;;;;;;;16.33;15.67;;;;;20.51;41.90;101441.25;5039586;28;45420;-78
2023/06/15 04:03:18;;;;;;;;;5.00;3.00;;;;;20.40;42.57;101422.22;5038758;28;46536;-76
2023/06/15 04:05:43;;;;;;;;;11.33;9.67;;;;;20.49;42.36;101440.44;5039143;28;45326;-76
2023/06/15 04:08:09;;;;;;;;;8.67;8.67;;;;;20.45;42.51;101436.22;5039323;28;45404;-76
2023/06/15 04:10:35;;;;;;;;;9.00;9.00;;;;;20.50;42.81;101440.38;5039242;28;45242;-77
2023/06/15 04:13:00;;;;;;;;;12.33;10.67;;;;;20.39;42.44;101439.22;5039143;28;45715;-75
2023/06/15 04:15:26;;;;;;;;;11.33;11.33;;;;;20.38;42.86;101434.84;5038752;28;45448;-72
2023/06/15 04:17:51;;;;;;;;;12.00;10.00;;;;;20.39;42.72;101445.44;5038876;28;45481;-73
2023/06/15 04:20:17;;;;;;;;;12.67;10.00;;;;;20.38;42.55;101443.72;5038981;28;45397;-74
2023/06/15 04:22:42;;;;;;;;;10.67;9.67;;;;;20.34;42.85;101448.34;5038577;28;45516;-74
2023/06/15 04:25:08;;;;;;;;;10.00;9.33;;;;;20.36;42.76;101459.00;5038949;28;45345;-73
2023/06/15 04:27:35;;;;;;;;;13.67;9.00;;;;;20.33;42.99;101453.78;5038726;28;45337;-78
2023/06/15 04:30:02;;;;;;;;;14.00;11.33;;;;;20.32;42.68;101444.03;5038858;28;45871;-75
2023/06/15 04:32:29;;;;;;;;;13.33;11.67;;;;;20.28;42.69;101437.97;5038401;28;46316;-75
2023/06/15 04:34:55;;;;;;;;;10.00;8.33;;;;;20.26;42.75;101455.91;5038461;28;45244;-76
2023/06/15 04:37:23;;;;;;;;;13.33;10.00;;;;;20.32;43.22;101468.13;5038804;28;45877;-76
2023/06/15 04:39:48;;;;;;;;;9.33;9.33;;;;;20.30;43.21;101456.59;5038803;28;45532;-77
2023/06/15 04:42:13;;;;;;;;;14.00;12.00;;;;;20.35;42.93;101467.94;5038024;28;46468;-77
2023/06/15 04:44:39;;;;;;;;;12.33;11.33;;;;;20.32;42.73;101463.63;5038580;28;45309;-79
2023/06/15 04:47:04;;;;;;;;;13.00;11.33;;;;;20.38;42.87;101481.16;5038673;28;45660;-78
2023/06/15 04:49:33;;;;;;;;;9.33;9.33;;;;;20.43;43.86;101491.59;5038743;28;45325;-75
2023/06/15 04:51:58;;;;;;;;;16.33;13.00;;;;;20.44;44.04;101475.47;5037989;28;46525;-78
2023/06/15 04:54:23;;;;;;;;;10.00;10.00;;;;;20.54;43.52;101489.25;5037980;28;45312;-80
2023/06/15 04:56:49;;;;;;;;;18.67;13.33;;;;;20.62;43.46;101488.81;5037354;28;45357;-75
2023/06/15 04:59:14;;;;;;;;;13.33;11.33;;;;;20.74;43.37;101490.00;5038235;28;45408;-74
2023/06/15 05:01:40;;;;;;;;;12.67;9.00;;;;;20.75;43.36;101492.59;5037980;28;46404;-76
2023/06/15 05:04:06;;;;;;;;;18.00;16.67;;;;;20.74;43.16;101496.25;5038400;28;45359;-76
2023/06/15 05:06:31;;;;;;;;;12.33;9.00;;;;;20.81;43.48;101494.97;5038172;28;45321;-76
2023/06/15 05:08:56;;;;;;;;;14.00;13.00;;;;;20.74;43.20;101488.22;5038185;28;45471;-76
2023/06/15 05:11:22;;;;;;;;;16.00;14.33;;;;;20.80;43.66;101493.22;5037668;28;46596;-75
2023/06/15 05:13:47;;;;;;;;;12.67;12.67;;;;;20.80;43.90;101501.25;5038017;28;45396;-75
2023/06/15 05:16:12;;;;;;;;;14.33;13.00;;;;;20.86;43.95;101510.78;5038096;28;45297;-76
2023/06/15 05:18:38;;;;;;;;;12.33;12.00;;;;;20.89;43.67;101507.94;5037768;28;45435;-73
2023/06/15 05:21:03;;;;;;;;;10.33;10.33;;;;;20.89;43.29;101497.22;5037491;28;45643;-78
2023/06/15 05:23:29;;;;;;;;;13.33;13.33;;;;;20.80;42.76;101462.94;5033853;28;45375;-77
2023/06/15 05:25:54;;;;;;;;;13.33;12.00;;;;;21.06;42.77;101496.31;5037636;28;45754;-79
2023/06/15 05:28:20;;;;;;;;;14.33;14.33;;;;;20.88;42.45;101463.34;5037746;28;45671;-78
2023/06/15 05:30:45;;;;;;;;;13.00;11.67;;;;;21.12;42.35;101506.69;5036066;28;46329;-76
2023/06/15 05:33:10;;;;;;;;;16.00;12.33;;;;;21.14;42.32;101503.91;5037771;28;45345;-76
2023/06/15 05:35:36;;;;;;;;;12.67;12.67;;;;;21.16;42.53;101496.66;5032087;28;45429;-76
2023/06/15 05:38:01;;;;;;;;;14.33;14.33;;;;;21.18;42.46;101498.28;5037677;28;45223;-75
2023/06/15 05:40:27;;;;;;;;;15.00;13.33;;;;;21.25;42.27;101505.97;5035019;28;46135;-79
2023/06/15 05:42:52;;;;;;;;;13.67;12.67;;;;;21.00;41.95;101459.13;5035348;28;45242;-79
2023/06/15 05:45:17;;;;;;;;;12.00;10.67;;;;;21.28;42.02;101501.34;5037751;28;45436;-79
2023/06/15 05:47:43;;;;;;;;;14.00;12.33;;;;;21.32;42.16;101504.69;5037393;28;45459;-75
2023/06/15 05:50:08;;;;;;;;;13.67;10.00;;;;;21.33;42.10;101495.72;5037373;28;45277;-75
2023/06/15 05:52:34;;;;;;;;;13.67;12.67;;;;;21.17;42.19;101460.88;5037063;28;45351;-76
2023/06/15 05:54:59;;;;;;;;;12.33;11.67;;;;;21.38;42.00;101499.00;5036100;28;45241;-75
2023/06/15 05:57:25;;;;;;;;;12.00;11.00;;;;;21.49;42.18;101510.00;5036725;28;45460;-76
2023/06/15 05:59:50;;;;;;;;;13.33;12.33;;;;;21.66;41.23;101510.88;5036822;28;46951;-77
2023/06/15 06:02:16;;;;;;;;;11.00;11.00;;;;;21.53;41.61;101470.50;5036866;28;45231;-76
2023/06/15 06:04:41;;;;;;;;;12.00;10.33;;;;;21.76;41.41;101498.66;5035382;28;45700;-77
2023/06/15 06:07:06;;;;;;;;;16.67;14.33;;;;;21.83;41.59;101499.19;5037414;28;45334;-78
2023/06/15 06:09:33;;;;;;;;;12.00;10.00;;;;;21.88;41.45;101499.75;5036458;28;46438;-76
2023/06/15 06:11:59;;;;;;;;;13.67;13.33;;;;;21.90;41.40;101501.41;5037073;28;45444;-78
2023/06/15 06:14:25;;;;;;;;;14.33;14.33;;;;;21.97;41.31;101509.09;5031572;28;45412;-78
2023/06/15 06:16:50;;;;;;;;;13.67;13.67;;;;;22.04;40.96;101523.84;5026567;28;45631;-77
2023/06/15 06:19:16;;;;;;;;;14.33;11.67;;;;;22.02;40.81;101518.59;5036760;28;45462;-78
2023/06/15 06:21:41;;;;;;;;;16.33;14.00;;;;;22.19;40.53;101517.59;5035931;28;45230;-78
2023/06/15 06:24:07;;;;;;;;;12.33;11.67;;;;;22.37;40.07;101517.47;5037165;28;45291;-78
2023/06/15 06:26:36;;;;;;;;;14.33;13.33;;;;;22.29;40.59;101512.53;5037452;28;45313;-74
2023/06/15 06:29:01;;;;;;;;;13.33;13.33;;;;;22.38;40.70;101521.88;5036585;28;46313;-74
2023/06/15 06:31:27;;;;;;;;;22.33;21.00;;;;;22.41;40.65;101527.09;5035066;28;45492;-75
2023/06/15 06:33:52;;;;;;;;;14.00;14.00;;;;;22.39;40.49;101523.59;5037238;28;45400;-74
2023/06/15 06:36:17;;;;;;;;;13.00;13.00;;;;;22.42;40.29;101516.25;5032322;28;45492;-76
2023/06/15 06:38:43;;;;;;;;;12.00;12.00;;;;;22.53;39.94;101529.00;5044970;28;45377;-76
2023/06/15 06:41:09;;;;;;;;;13.67;11.33;;;;;22.56;40.12;101528.81;5041370;28;46473;-76
2023/06/15 06:43:35;;;;;;;;;11.00;11.00;;;;;22.35;39.81;101493.44;5057187;28;45412;-76
2023/06/15 06:46:01;;;;;;;;;18.00;18.00;;;;;22.53;40.12;101526.31;5057100;28;45395;-75
2023/06/15 06:48:26;;;;;;;;;13.00;13.00;;;;;22.47;39.94;101501.69;5056876;28;46492;-78
2023/06/15 06:50:51;;;;;;;;;11.00;11.00;;;;;22.45;40.32;101492.84;5056976;28;45436;-81
2023/06/15 06:53:17;;;;;;;;;13.00;11.33;;;;;22.66;39.72;101523.75;5036684;28;45524;-79
2023/06/15 06:55:44;;;;;;;;;14.00;12.33;;;;;22.68;39.54;101516.44;5037814;28;45433;-78
2023/06/15 06:58:10;;;;;;;;;11.67;10.33;;;;;22.72;39.28;101514.47;5056781;28;46687;-77
2023/06/15 07:00:35;;;;;;;;;14.33;12.33;;;;;22.80;39.40;101528.28;5046993;28;45424;-73
2023/06/15 07:03:01;;;;;;;;;15.33;11.33;;;;;22.79;38.76;101521.19;5036879;28;45227;-77
2023/06/15 07:05:26;;;;;;;;;12.33;12.33;;;;;22.81;39.08;101530.00;5036712;28;45505;-75
2023/06/15 07:07:51;;;;;;;;;13.67;12.00;;;;;22.93;39.34;101528.34;5035603;28;45858;-74
2023/06/15 07:10:17;;;;;;;;;17.00;14.33;;;;;23.08;38.79;101538.16;5043663;28;45509;-75
2023/06/15 07:12:42;;;;;;;;;9.00;9.00;;;;;23.24;38.01;101539.91;5036174;28;45486;-75
2023/06/15 07:15:08;;;;;;;;;12.00;9.67;;;;;23.41;37.28;101522.69;5036871;28;45304;-74
2023/06/15 07:17:33;;;;;;;;;11.67;10.00;;;;;23.93;37.15;101527.38;5039016;28;47000;-75
2023/06/15 07:19:58;;;;;;;;;10.00;10.00;;;;;24.43;36.36;101543.72;5041210;28;45397;-75
2023/06/15 07:22:24;;;;;;;;;9.33;8.67;;;;;24.46;36.19;101534.59;5048445;28;45487;-75
2023/06/15 07:24:50;;;;;;;;;12.00;10.00;;;;;24.46;36.31;101550.75;5040093;28;45310;-75
2023/06/15 07:27:16;;;;;;;;;11.00;9.33;;;;;24.29;36.05;101536.59;5039774;28;46358;-75
2023/06/15 07:29:41;;;;;;;;;10.00;10.00;;;;;24.42;36.83;101533.06;5039284;28;45407;-75
2023/06/15 07:32:07;;;;;;;;;10.00;10.00;;;;;24.65;36.19;101540.44;5039989;28;45503;-75
2023/06/15 07:34:32;;;;;;;;;8.33;8.33;;;;;24.87;36.18;101540.78;5043204;28;45364;-75
2023/06/15 07:36:57;;;;;;;;;11.33;10.33;;;;;25.41;35.63;101545.03;5019402;28;45509;-75
2023/06/15 07:39:23;;;;;;;;;12.00;12.00;;;;;25.27;35.28;101544.16;5036018;28;45412;-75
2023/06/15 07:41:48;;;;;;;;;12.33;11.33;;;;;25.15;35.33;101553.13;5037537;28;45228;-75
2023/06/15 07:44:14;;;;;;;;;12.33;11.33;;;;;24.89;35.98;101539.66;5042972;28;45353;-75
2023/06/15 07:46:40;;;;;;;;;12.33;12.33;;;;;24.83;36.23;101545.50;5044837;28;45344;-75
2023/06/15 07:49:06;;;;;;;;;10.67;10.67;;;;;24.76;36.21;101546.91;5039427;28;45518;-75
2023/06/15 07:51:32;;;;;;;;;12.00;12.00;;;;;24.62;36.33;101535.28;5039277;28;45572;-74
2023/06/15 07:53:57;;;;;;;;;11.33;10.67;;;;;24.57;36.71;101544.59;5035684;28;45844;-75
2023/06/15 07:56:22;;;;;;;;;9.00;9.00;;;;;24.52;36.86;101526.06;5028476;28;47086;-73
2023/06/15 07:58:48;;;;;;;;;15.33;13.00;;;;;24.76;36.71;101550.47;5037718;28;45362;-76
2023/06/15 08:01:13;;;;;;;;;12.00;12.00;;;;;25.02;36.69;101556.72;5039126;28;45479;-74
2023/06/15 08:03:38;;;;;;;;;11.33;9.67;;;;;24.93;36.52;101543.88;5039071;28;45498;-74
2023/06/15 08:06:04;;;;;;;;;11.00;11.00;;;;;24.80;36.14;101514.25;5037352;28;46374;-74
2023/06/15 08:08:29;;;;;;;;;11.00;10.00;;;;;24.98;36.36;101549.81;5037493;28;45377;-73
2023/06/15 08:10:54;;;;;;;;;14.00;13.00;;;;;24.96;36.18;101550.88;5037583;28;45676;-74
2023/06/15 08:13:20;;;;;;;;;12.00;11.00;;;;;24.93;35.83;101538.50;5039181;28;45319;-75
2023/06/15 08:15:46;;;;;;;;;13.33;11.33;;;;;25.07;35.90;101545.59;5038713;28;46439;-74
2023/06/15 08:18:11;;;;;;;;;10.33;10.33;;;;;25.06;34.72;101546.56;5038912;28;45290;-75
2023/06/15 08:20:37;;;;;;;;;10.00;10.00;;;;;25.05;35.19;101557.47;5038974;28;45155;-73
2023/06/15 08:23:02;;;;;;;;;10.00;10.00;;;;;25.05;34.79;101557.47;5037842;28;45525;-74
2023/06/15 08:25:28;;;;;;;;;12.33;10.33;;;;;25.04;35.71;101553.91;5036012;28;45266;-75
2023/06/15 08:27:54;;;;;;;;;13.33;12.00;;;;;25.12;35.98;101554.19;5034176;28;45428;-74
2023/06/15 08:30:20;;;;;;;;;8.67;8.67;;;;;25.69;33.92;101566.31;5036129;28;45457;-74
2023/06/15 08:32:45;;;;;;;;;11.33;10.00;;;;;26.19;33.26;101555.41;5037645;28;45286;-74
2023/06/15 08:35:11;;;;;;;;;12.33;12.00;;;;;26.33;33.22;101550.78;5036101;28;46036;-74
2023/06/15 08:37:36;;;;;;;;;10.00;10.00;;;;;26.13;33.09;101525.34;5037567;28;45496;-73
2023/06/15 08:40:06;;;;;;;;;11.00;8.67;;;;;26.09;33.79;101534.63;5034957;28;45496;-73
2023/06/15 08:42:33;;;;;;;;;11.67;10.33;;;;;26.18;33.73;101545.56;5038384;28;45301;-72
2023/06/15 08:44:59;;;;;;;;;9.67;9.67;;;;;26.27;33.48;101546.69;5034939;28;46711;-73
2023/06/15 08:47:26;;;;;;;;;10.33;10.33;;;;;26.42;32.57;101542.84;5037845;28;45221;-73
2023/06/15 08:49:52;;;;;;;;;12.33;12.00;;;;;26.37;32.94;101549.56;5022335;28;45437;-73
2023/06/15 08:52:20;;;;;;;;;12.00;12.00;;;;;26.27;33.35;101546.69;5018577;28;45319;-73
2023/06/15 08:54:48;;;;;;;;;11.00;9.33;;;;;26.25;33.06;101556.78;5022511;28;45560;-73
2023/06/15 08:57:14;;;;;;;;;11.33;11.33;;;;;26.14;33.30;101546.81;5028469;28;45428;-73
2023/06/15 08:59:40;;;;;;;;;11.33;10.00;;;;;26.06;34.13;101554.63;5027835;28;45360;-73
2023/06/15 09:02:17;;;;;;;;;12.33;12.33;;;;;26.15;33.86;101558.47;5036098;28;45435;-73
2023/06/15 09:04:42;;;;;;;;;13.33;11.00;;;;;26.14;33.89;101554.91;5034886;28;46651;-73
2023/06/15 09:07:09;;;;;;;;;10.00;10.00;;;;;26.18;33.34;101560.91;5035762;28;45308;-73
2023/06/15 09:09:35;;;;;;;;;10.33;10.33;;;;;26.10;33.63;101548.03;5038129;28;45314;-74
2023/06/15 09:12:00;;;;;;;;;12.67;11.00;;;;;26.11;33.17;101565.91;5035926;28;45518;-75
2023/06/15 09:14:25;;;;;;;;;11.33;11.33;;;;;26.13;33.09;101544.22;5032838;28;46061;-76
2023/06/15 09:16:51;;;;;;;;;13.33;11.67;;;;;26.49;32.92;101559.44;5036219;28;45401;-74
2023/06/15 09:19:16;;;;;;;;;10.33;10.33;;;;;26.74;32.29;101558.41;5036947;28;45623;-75
2023/06/15 09:21:49;;;;;;;;;10.00;10.00;;;;;26.85;31.30;101564.78;5035842;28;45450;-75
2023/06/15 09:24:16;;;;;;;;;10.00;10.00;;;;;26.79;31.10;101554.47;5031822;28;46552;-75
2023/06/15 09:26:45;;;;;;;;;12.00;12.00;;;;;26.76;31.75;101552.88;5031547;28;45270;-74
2023/06/15 09:29:11;;;;;;;;;13.33;12.00;;;;;26.82;31.66;101571.28;5037599;28;45329;-75
2023/06/15 09:31:37;;;;;;;;;9.00;9.00;;;;;26.78;31.69;101559.03;5035000;28;45551;-74
2023/06/15 09:34:07;;;;;;;;;10.00;10.00;;;;;26.84;30.65;101561.25;5036966;28;45385;-73
2023/06/15 09:36:44;;;;;;;;;13.00;10.33;;;;;27.02;30.80;101556.22;5035910;28;45432;-73
2023/06/15 09:39:12;;;;;;;;;10.33;10.00;;;;;27.35;31.29;101561.78;5037699;28;45280;-73
2023/06/15 09:41:54;;;;;;;;;12.67;9.33;;;;;28.54;30.28;101541.91;5037901;28;45463;-73
2023/06/15 09:44:21;;;;;;;;;10.67;9.00;;;;;31.19;28.32;101568.41;5036641;28;46592;-73
2023/06/15 09:46:51;;;;;;;;;10.00;9.33;;;;;33.64;25.36;101566.97;5036079;28;45444;-74
2023/06/15 09:49:21;;;;;;;;;9.33;9.33;;;;;35.81;23.87;101553.59;5033481;28;45350;-75
2023/06/15 09:51:49;;;;;;;;;7.67;7.67;;;;;37.90;21.84;101564.69;5036274;28;45545;-74
2023/06/15 09:54:17;;;;;;;;;8.00;8.00;;;;;39.51;19.02;101558.38;5033657;28;46556;-74
2023/06/15 09:56:44;;;;;;;;;8.33;8.33;;;;;40.83;18.91;101563.34;5017597;28;45409;-74
2023/06/15 09:59:10;;;;;;;;;9.33;7.67;;;;;42.04;16.61;101561.66;5017630;28;45391;-75
2023/06/15 10:01:37;;;;;;;;;7.67;7.67;;;;;43.18;16.20;101563.34;5017477;28;45251;-73
2023/06/15 10:04:03;;;;;;;;;7.50;6.00;;;;;44.52;16.37;101572.38;5017410;28;46090;-73
2023/06/15 10:06:33;;;;;;;;;5.75;5.75;;;;;45.35;15.65;101536.91;5017362;28;45353;-72
2023/06/15 10:09:00;;;;;;;;;5.75;5.75;;;;;46.38;14.42;101568.47;5017379;28;45291;-73
2023/06/15 10:11:27;;;;;;;;;4.25;4.25;;;;;46.76;13.11;101579.91;5017626;28;45434;-72
2023/06/15 10:13:57;;;;;;;;;5.00;5.00;;;;;47.26;13.77;101576.06;5018419;28;46024;-72
2023/06/15 10:16:24;;;;;;;;;4.50;4.50;;;;;47.98;13.41;101571.22;5016983;28;45434;-74
2023/06/15 10:18:59;;;;;;;;;4.75;4.75;;;;;48.56;13.63;101582.53;5017161;28;45374;-73
2023/06/15 10:21:29;;;;;;;;;6.25;5.00;;;;;48.99;13.31;101579.69;5017354;28;45947;-74
2023/06/15 10:24:00;;;;;;;;;3.50;3.50;;;;;49.26;12.21;101573.91;5020166;28;46528;-73
2023/06/15 10:26:25;;;;;;;;;6.00;3.25;;;;;49.35;12.06;101565.81;5037202;28;45369;-74
2023/06/15 10:28:58;;;;;;;;;2.25;2.25;;;;;49.52;12.55;101578.72;5037001;28;45195;-73
2023/06/15 10:31:36;;;;;;;;;7.00;6.00;;;;;49.72;12.91;101573.16;5029365;28;45630;-73
2023/06/15 10:34:08;;;;;;;;;5.00;5.00;;;;;49.62;10.97;101581.56;5021416;28;46793;-74
2023/06/15 10:36:55;;;;;;;;;3.25;3.25;;;;;49.59;12.26;101577.34;5024327;28;45414;-74
2023/06/15 10:39:32;;;;;;;;;4.00;4.00;;;;;49.58;11.74;101569.25;5033929;28;45393;-74
2023/06/15 10:41:58;;;;;;;;;3.00;3.00;;;;;49.62;11.47;101561.97;5017126;28;45660;-74
2023/06/15 10:44:32;;;;;;;;;2.75;2.75;;;;;49.54;12.01;101573.69;5016794;28;47040;-74
2023/06/15 10:47:09;;;;;;;;;2.00;2.00;;;;;49.20;11.34;101563.84;5016980;28;45445;-74
2023/06/15 10:49:35;;;;;;;;;5.50;4.50;;;;;49.13;11.33;101564.06;5035298;28;45516;-73
2023/06/15 10:52:02;;;;;;;;;5.00;3.50;;;;;49.21;10.86;101564.66;5036925;28;45386;-75
2023/06/15 10:54:28;;;;;;;;;3.00;3.00;;;;;48.97;11.13;101565.13;5037668;28;46199;-74
2023/06/15 10:56:55;;;;;;;;;3.00;3.00;;;;;48.54;11.19;101556.84;5040062;28;45299;-74
2023/06/15 10:59:41;;;;;;;;;3.50;3.50;;;;;48.03;11.68;101568.47;5040160;28;45227;-73
2023/06/15 11:02:28;;;;;;;;;3.50;3.50;;;;;46.99;11.43;101567.69;5040330;28;45185;-73
2023/06/15 11:04:59;;;;;;;;;3.00;3.00;;;;;45.81;12.15;101550.81;5040050;28;46696;-74
2023/06/15 11:07:29;;;;;;;;;3.50;3.50;;;;;44.38;13.13;101559.81;5041274;28;45423;-74
2023/06/15 11:10:00;;;;;;;;;4.00;3.00;;;;;42.73;12.93;101561.72;5039681;28;45437;-74
2023/06/15 11:12:39;;;;;;;;;2.75;2.75;;;;;41.12;14.25;101539.88;5040046;28;45354;-76
2023/06/15 11:15:07;;;;;;;;;3.50;3.50;;;;;39.98;15.38;101547.44;5052503;28;46477;-73